AirNav   Air Wisconsin pilot careers
 
 732 users online  

CN44 Flying Bull Airport
Modesto, California, USA

GOING TO MODESTO?


FAA INFORMATION EFFECTIVE 23 MAY 2019

Location

FAA Identifier: CN44
Lat/Long: 37-37-13.7000N / 121-09-46.7000W
37-37.228333N / 121-09.778333W
37.6204722 / -121.1629722
(estimated)
Elevation: 40 ft. / 12 m (estimated)
Variation: 15E (2000)
From city: 10 miles W of MODESTO, CA
Time zone: UTC -7 (UTC -8 during Standard Time)
Zip code: 95358

Airport Operations

Airport use: Private use. Permission required prior to landing
Activation date: 11/2002
Control tower: no
ARTCC: OAKLAND CENTER
FSS: RANCHO MURIETA FLIGHT SERVICE STATION
Attendance: UNATNDD
Wind indicator: yes
Segmented circle: no

Airport Communications

WX ASOS at MOD (10 nm E): 127.7 (209-572-0914)
WX AWOS-3 at TCY (14 nm W): 118.375 (209-831-4335)
WX ASOS at SCK (17 nm N): PHONE 209-982-4270

Nearby radio navigation aids

VOR radial/distance  VOR name  Freq  Var
MODr251/9.8MODESTO VOR/DME114.6017E
LINr178/28.3LINDEN VOR/DME114.8017E

 
NDB name  Hdg/Dist  Freq  Var  ID
TRACY093/14.120315ETCY - -.-. -.--

Airport Services

Runway Information

Runway 2/20

Dimensions: 1800 x 100 ft. / 549 x 30 m
Surface: turf
RUNWAY 2  RUNWAY 20
Traffic pattern: leftleft

Airport Ownership and Management from official FAA records

Ownership: Privately-owned
Owner: ED & DIANA LYONS
9000 PARADISE ROAD
MODESTO, CA 95358
Phone (209) 541-4188
Manager: ED & DIANA LYONS
9000 PARADISE ROAD
MODESTO, CA 95358
Phone (209) 541-4188
CELL - 209-541-4188

Airport Operational Statistics

Aircraft based on the field: 4
Single engine airplanes: 2
Ultralights: 2
    

Additional Remarks

FOR CD CTC NORCAL APCH AT 916-361-0516.

Instrument Procedures

There are no published instrument procedures at CN44.

Some nearby airports with instrument procedures:

KMOD - Modesto City-County Airport-Harry Sham Field (10 nm E)
KTCY - Tracy Municipal Airport (14 nm W)
KSCK - Stockton Metropolitan Airport (17 nm N)
O27 - Oakdale Airport (19 nm NE)
C83 - Byron Airport (25 nm NW)
 
Loc | Ops | Rwys | IFR | FBO | Links
Com | Nav | Svcs | Stats | Notes
Area around CN44 (Flying Bull Airport)
 
Road maps at: MapQuest Bing Google
 
Aerial photo
No photo
 
Sectional chart

 
Airport distance calculator
Flying to Flying Bull Airport? Find the distance to fly.

From to CN44

Sunrise and sunset
Times for 25-May-2019
 Local
(UTC-7)
 Zulu
(UTC)
Morning civil twilight05:1912:19
Sunrise05:4912:49
Sunset20:1403:14
Evening civil twilight20:4403:44

Current date and time
Zulu (UTC)  25-May-2019 12:35:27
Local (UTC-7)  25-May-2019 05:35:27
 
METAR
KMOD 
10nm E 
251153Z AUTO 02003KT 10SM CLR 13/11 A2979 RMK AO2 SLP088 T01280106 10183 20128 58011
KTCY 
14nm W 
251215Z AUTO 32004KT 10SM CLR 13/11 A2979 RMK A01
KSCK 
16nm N 
251155Z AUTO 26011G19KT 10SM CLR 14/11 A2978 RMK AO2 SLP084 T01390106 10172 20133 57018
TAF
KMOD 
10nm E 
251120Z 2512/2612 33007KT P6SM SCT250 FM260500 33009KT P6SM VCSH BKN080
KSCK 
16nm N 
251120Z 2512/2612 26010KT P6SM FEW015 SCT250 FM260300 28012G22KT P6SM VCSH OVC070
NOTAMs
Click for the latest NOTAMs
NOTAMs are issued by the DoD/FAA and will open in a separate window not controlled by AirNav.

 

 
 

Would you like to see your business listed on this page?

 If your business provides an interesting product or service to pilots, flight crews, aircraft, or users of the Flying Bull Airport, you should consider listing it here.  To start the listing process, click on the button below
 
Add a business
 

Other Pages about Flying Bull Airport

Update a link
 
Copyright © AirNav, LLC. All rights reserved. Privacy Policy  Contact